MET: Información y Pronóstico Aeronáutico

///////////////////////////////////////////////////////////////////////////////////////////////////////////////////////////////////////////////////////////////////////////////////////////////////////////////////////////////////////////////

Member for

3 semanas 6 días
Enviado por meteorologia el Jue, 23/11/2017 - 11:39
21-8

21 DE AGOSTO 2018

INFORMACION METEOROLOGICA AERONAUTICA (METAR) 18:00 UTC

Aeropuerto AEROPARQUE J. NEWBERY

21 - 18:00 METAR SABE 211800Z 06006KT CAVOK 11/03 Q1027 NOSIG =

Aeropuerto BAHIA BLANCA

21 - 18:00 METAR SAZB 211800Z 34018KT CAVOK 16/M03 Q1021 =

Aeropuerto BARILOCHE

21 - 18:00 METAR SAZS 211800Z 32004KT CAVOK 10/M03 Q1016 NOSIG =

Aeropuerto CATAMARCA

21 - 18:00 METAR SANC 211800Z 16006KT 9999 NSC 20/M05 Q1020 =

Aeropuerto CHAPELCO

21 - 18:00 METAR SAZY 211800Z 00000KT CAVOK 14/M06 Q1014 =

Aeropuerto COMODORO RIVADAVIA

21 - 18:00 METAR SAVC 211800Z 32012KT 250V340 CAVOK 18/01 Q1010 =

Aeropuerto CORDOBA

21 - 18:00 METAR SACO 211800Z 05017KT CAVOK 17/M05 Q1023 NOSIG =

Aeropuerto CORRIENTES

21 - 18:00 METAR SARC 211800Z 16007KT 8000 SCT025 BKN100 13/02 Q1026 =

Aeropuerto EL CALAFATE

21 - 18:00 METAR SAWC 211800Z 29004KT 9999 16/M02 Q1003 =

Aeropuerto EL PALOMAR

21 - 18:00 METAR SADP 211800Z 04004KT 360V090 9999 FEW035 14/01 Q1027 =

Aeropuerto ESQUEL

21 - 18:00 METAR SAVE 211800Z 20005KT CAVOK 10/M00 Q1013 =

Aeropuerto EZEIZA

21 - 18:00 METAR SAEZ 211700Z 33006KT CAVOK 13/00 Q1027 NOSIG =

Aeropuerto FORMOSA

21 - 18:00 METAR SARF 211800Z 20006KT 9999 BKN012 OVC100 12/06 Q1025 =

Aeropuerto IGUAZU/CATARATAS

21 - 18:00 METAR SARI 211800Z 20009KT 5000 -RA BR SCT003 SCT005 OVC050 09/09 Q1022 =

Aeropuerto JUJUY

21 - 18:00 METAR SASJ 211800Z 09006KT 020V120 CAVOK 17/00 Q1023 =

Aeropuerto LA RIOJA

21 - 18:00 METAR SANL 211800Z 09003KT CAVOK 19/M03 Q1022 =

Aeropuerto MALARGUE

21 - 18:00 METAR SAMM 211800Z 36004KT CAVOK 18/M07 Q1019 =

Aeropuerto MAR DEL PLATA

21 - 18:00 METAR SAZM 211800Z 32012KT CAVOK 12/00 Q1025 =

Aeropuerto MENDOZA

21 - 18:00 METAR SAME 211700Z 05007KT CAVOK 14/M03 Q1021 =

Aeropuerto MORON

21 - 18:00 METAR SADM 211800Z 02002KT CAVOK 14/04 Q1025 =

Aeropuerto NEUQUEN

21 - 18:00 METAR SAZN 211800Z 32005KT CAVOK 15/M04 Q1016 =

Aeropuerto PARANA

21 - 18:00 METAR SAAP 211800Z VRB09KT CAVOK 12/M04 Q1028 =

Aeropuerto POSADAS

21 - 18:00 METAR SARP 211800Z 18007KT 9999 -RA BKN020 OVC040 09/07 Q1025 =

Aeropuerto PUERTO MADRYN

21 - 18:00 METAR SAVY 211800Z 34004KT CAVOK 19/M01 Q1012 =

Aeropuerto RECONQUISTA

21 - 18:00 METAR SATR 211800Z 16004KT CAVOK 14/02 Q1026 =

Aeropuerto RESISTENCIA

21 - 18:00 METAR SARE 211800Z 16005KT 9999 FEW040 13/04 Q1026 =

Aeropuerto RIO CUARTO

21 - 18:00 METAR SAOC 211800Z 36019KT CAVOK 17/M12 Q1021 =

Aeropuerto RIO GALLEGOS

21 - 18:00 METAR SAWG 211800Z 27005KT CAVOK 11/M01 Q1004 =

Aeropuerto RIO GRANDE

21 - 18:00 METAR SAWE 211800Z 27024KT 9999 FEW018 11/02 Q1000 =

Aeropuerto ROSARIO

21 - 18:00 METAR SAAR 211800Z 05009KT CAVOK 13/M04 Q1026 =

Aeropuerto SALTA

21 - 18:00 METAR SASA 211800Z 09004KT CAVOK 16/M01 Q1022 =

Aeropuerto SAN FERNANDO

21 - 18:00 METAR SADF 211800Z 09007KT 9999 FEW025 12/05 Q1027 =

Aeropuerto SAN JUAN

21 - 18:00 METAR SANU 211800Z 16005KT CAVOK 17/M11 Q1020 =

Aeropuerto SAN LUIS

21 - 18:00 METAR SAOU 211800Z 36012KT CAVOK 17/M06 Q1020 =

Aeropuerto SAN RAFAEL

21 - 18:00 METAR SAMR 211800Z 02012KT CAVOK 20/M09 Q1018 =

Aeropuerto SANTA ROSA

21 - 18:00 METAR SAZR 211800Z 36020KT CAVOK 19/M03 Q1020 =

Aeropuerto SANTIAGO DEL ESTERO

21 - 18:00 METAR SANE 211800Z 07003KT CAVOK 17/M03 Q1024 =

Aeropuerto SAUCE VIEJO

21 - 18:00 METAR SAAV 211800Z 05009KT CAVOK 14/01 Q1027 =

Aeropuerto TANDIL

21 - 18:00 METAR SAZT 211800Z 32013KT CAVOK 11/M02 Q1025 =

Aeropuerto TERMAS DE RIO HONDO

21 - 18:00 METAR SANR 211800Z 18006KT CAVOK 17/M03 Q1024 =

Aeropuerto TRELEW

21 - 18:00 METAR SAVT 211800Z 32008KT CAVOK 20/M11 Q1012 =

Aeropuerto TUCUMAN

21 - 18:00 METAR SANT 211800Z 05004KT 8000 NSC 18/M03 Q1023 =

Aeropuerto USHUAIA

21 - 18:00 METAR SAWH 211800Z 23017G35KT 9999 SCT045 08/01 Q0998 =

Aeropuerto VIEDMA

21 - 18:00 METAR SAVV 211800Z 32017KT CAVOK 18/M03 Q1016 =

Aeropuerto VILLA REYNOLDS

21 - 18:00 METAR SAOR 211800Z 00000KT CAVOK 21/M06 Q1020 =

 PRONOSTICO DE AERODROMO (TAF) 17:00 UTC

Estación AEROPARQUE J. NEWBERY

21 - 17:00 TAF SABE 211700Z 2118/2218 04010KT CAVOK TX14/2218Z TN07/2210Z PROB30 2207/2212 34005KT 5000 BR BECMG 2212/2214 04015KT CAVOK =

Estación BAHIA BLANCA

21 - 17:00 TAF SAZB 211700Z 2118/2218 34020KT CAVOK TX17/2218Z TN05/2210Z BECMG 2200/2203 36010KT BECMG 2206/2209 35020KT =

Estación BARILOCHE

21 - 17:00 TAF SAZS 211700Z 2118/2218 VRB03KT CAVOK TX11/2218Z TNM01/2210Z BECMG 2120/2122 29005KT 9999 SCT040 BECMG 2212/2215 32020KT 9999 BKN030 OVC100 =

Estación CATAMARCA

21 - 11:00 TAF SANC 211100Z 2112/2212 02020KT 9999 SCT040 TX19/2118Z TN05/2210Z BECMG 2115/2118 02015G25KT =

Estación CHAPELCO

21 - 17:00 TAF SAZY 211700Z 2118/2218 25010KT 9999 SCT040 TX10/2118Z TN00/2112Z BECMG 2100/2203 22005KT 9999 SCT030 BECMG 2206/2209 VRB05KT 9999 BKN020 PROB30 2212/2218 27015G25KT 5000 RASN BKN015 OVC030 =

Estación COMODORO RIVADAVIA

21 - 17:00 TAF SAVC 211700Z 2118/2218 29015KT CAVOK TX22/2118Z TN10/2211Z PROB30 TEMPO 2118/2121 07010KT 9999 SCT030 BECMG 2214/2216 32030G45KT 9999 SCT030 OVC070 =

Estación CORDOBA

21 - 17:00 TAF SACO 211700Z 2118/2218 02015KT CAVOK TX17/2218Z TN02/2210Z BECMG 2121/2200 36005KT CAVOK =

Estación CORRIENTES

21 - 17:00 TAF SARC 211700Z 2118/2218 14005KT 9999 SCT035 SCT100 TX18/2218Z TN01/2209Z PROB40 2208/2111 5000 BR NSC =

Estación EL CALAFATE

21 - 17:00 TAF SAWC 211700Z 2118/2218 05010KT 9999 SCT035 BKN070 TX12/2118Z TN03/2211Z BECMG 2120/2122 16010KT BECMG 2202/2204 VRB05KT BECMG 2210/2212 27010KT =

Estación EL PALOMAR

21 - 17:00 TAF SADP 211700Z 2118/2218 34005KT CAVOK TX15/2218Z TN05/2210Z BECMG 2208/2212 2000 MIFG BECMG 2213/2215 02010KT CAVOK =

Estación ESQUEL

21 - 17:00 TAF SAVE 211700Z 2118/2218 VRB05KT CAVOK TX03/2118Z TNM01/2211Z BECMG 2213/2215 32015KT =

Estación EZEIZA

21 - 17:00 TAF SAEZ 211700Z 2118/2218 34005KT CAVOK TX14/2218Z TN05/2210Z BECMG 2208/2212 2000 MIFG BECMG 2213/2215 02008KT CAVOK BECMG 2215/2218 36015KT =

Estación FORMOSA

21 - 17:00 TAF SARF 211700Z 2118/2218 18005KT 9999 SCT015 OVC100 TX20/2218Z TN03/2209Z PROB40 2207/2211 5000 BR NSC =

Estación IGUAZU/CATARATAS

21 - 17:00 TAF SARI 211700Z 2118/2218 20005KT 5000 -RA BR BKN003 OVC040 TX15/2118Z TN05/2210Z BECMG 2205/2206 00000KT 0200 FG SCT005 BECMG 2214/2215 18005KT 9999 SCT020 =

Estación JUJUY

21 - 17:00 TAF SASJ 211700Z 2118/2218 05010KT CAVOK TX15/2218Z TNM02/2210Z BECMG 2121/2200 VRB03KT CAVOK =

Estación LA RIOJA

21 - 11:00 TAF SANL 211100Z 2112/2212 32010KT CAVOK TX18/2118Z TN05/2210Z BECMG 2115/2118 20005KT CAVOK BECMG 2118/2121 16005KT CAVOK =

Estación MAR DEL PLATA

21 - 17:00 TAF SAZM 211700Z 2218/2318 32010KT CAVOK TX14/2218Z TN00/2210Z BECMG 2200/2203 34015G25KT =

Estación MENDOZA

21 - 17:00 TAF SAME 211700Z 2118/2218 02010KT CAVOK TX17/2120Z TN00/2210Z BECMG 2202/22204 VRB03KT CAVOK =

Estación NEUQUEN

21 - 17:00 TAF SAZN 211700Z 2118/2218 29005KT CAVOK TX20/2218Z TN01/2210Z BECMG 2123/2202 02005KT BECMG 2214/2217 32015G25KT =

Estación PARANA

21 - 17:00 TAF SAAP 211700Z 2118/2218 05005KT CAVOK TX14/2218Z TN02/2210Z BECMG 2200/2203 08005KT PROB30 2206/2212 2000 MIFG NSC BECMG 2213/2215 CAVOK =

Estación POSADAS

21 - 17:00 TAF SARP 211700Z 2118/2218 18005KT 9000 -RA FEW020 OVC040 TX20/2218Z TN04/2210Z BECMG 2122/2124 CAVOK BECMG 2206/2207 VRB03KT 2000 BR SCT010 BECMG 2212/2213 CAVOK =

Estación RESISTENCIA

21 - 17:00 TAF SARE 211700Z 2118/2218 14005KT 9999 SCT035 SCT100 TX18/2218Z TN01/2209Z PROB40 2207/2111 5000 BR NSC =

Estación RIO CUARTO

21 - 11:00 TAF SAOC 211100Z 2112/2212 34010KT CAVOK TX15/2118Z TNM03/2210Z BECMG 2115/2118 36015KT CAVOK =

Estación RIO GALLEGOS

21 - 17:00 TAF SAWG 211700Z 2118/2218 25010KT 9999 SCT030 BKN070 TX12/2111Z TN02/2211Z BECMG 2121/2123 05015KT BECMG 2201/2203 8000 SHRA BKN030 OVC070 =

Estación RIO GRANDE

21 - 17:00 TAF SAWE 211700Z 2118/2218 27025G35KT 9999 SCT010 BKN070 TX08/2118Z TN00/2211Z BECMG 2202/2204 05015KT 6000 SHRA BKN010 OVC050 BECMG 2216/2218 2000 RABR BKN004 OVC020 =

Estación ROSARIO

21 - 17:00 TAF SAAR 211700Z 2118/2218 36010KT CAVOK TX16/2218Z TN03/2210Z BECMG 2206/2208 02005KT 4000 BR NSC BECMG 2211/2214 04010KT CAVOK =

Estación SALTA

21 - 17:00 TAF SASA 211700Z 2118/2218 09010KT CAVOK TX15/2218Z TNM02/2210Z BECMG 2121/2200 05005KT CAVOK =

Estación SAN FERNANDO

21 - 17:00 TAF SADF 211700Z 2118/2218 07010KT 9999 FEW020 TX16/2218Z TN05/2210Z BECMG 2200/2202 02005KT CAVOK PROB30 2209/2211 5000 BR NSC BECMG 2214/2216 05010KT 9999 SCT020 =

Estación SAN JUAN

21 - 17:00 TAF SANU 211700Z 2118/2218 36010KT CAVOK TX21/2120Z TN00/2210Z =

Estación SAN LUIS

21 - 17:00 TAF SAOU 211700Z 2118/2218 34010KT CAVOK TX20/2119Z TN04/2209 BECMG 2202/2204 36020KT CAVOK =

Estación SAN RAFAEL

21 - 17:00 TAF SAMR 211700Z 2118/2218 03010KT CAVOK TX22/2120Z TN01/2210Z =

Estación SANTA ROSA

21 - 17:00 TAF SAZR 211700Z 2118/2218 36015KT CAVOK TX16/2218Z TN02/2210Z =

Estación SANTIAGO DEL ESTERO

21 - 11:00 TAF SANE 211100Z 2112/2212 VRB03KT CAVOK TX16/2118Z TN01/2210Z BECMG 2115/2118 02010KT CAVOK =

Estación SAUCE VIEJO

21 - 17:00 TAF SAAV 211700Z 2118/2218 05005KT CAVOK TX16/2218Z TN02/2210Z BECMG 2200/2203 08005KT PROB30 2206/2212 2000 MIFG NSC BECMG 2213/2215 CAVOK =

Estación TERMAS DE RIO HONDO

21 - 11:00 TAF SANR 211100Z 2112/2212 VRB03KT 5000 BR NSC TX15/2118Z TNM01/2210Z BECMG 2114/2116 02005KT CAVOK =

Estación TRELEW

21 - 17:00 TAF SAVT 211700Z 2118/2218 VRB05KT CAVOK TX20/2118Z TN05/2211Z BECMG 2121/2123 36010KT BECMG 2212/2214 34015G30KT =

Estación TUCUMAN

21 - 17:00 TAF SANT 211700Z 2118/2218 36005KT 8000 NSC TX17/2218Z TNM02/2210Z BECMG 2121/2200 09005KT 5000 FU NSC =

Estación USHUAIA

21 - 17:00 TAF SAWH 211700Z 2118/2218 23015G30KT 9999 SCT035 TX12/2118Z TN00/2210Z BECMG 2120/2122 05010KT BKN020 BECMG 2203/2205 8000 RASN BKN010 OVC020 =

Estación VIEDMA

21 - 17:00 TAF SAVV 211700Z 2118/2218 32015KT CAVOK TX18/2118Z TN04/2211Z BECMG 2212/2214 34020G30KT =

Z TN04/2211Z =